createdAt,value
2023-05-21T00:02:11.793Z,17.70
2023-05-21T00:04:41.550Z,17.40
2023-05-21T00:07:09.417Z,17.60
2023-05-21T00:09:38.297Z,17.40
2023-05-21T00:12:06.833Z,17.60
2023-05-21T00:14:34.996Z,17.60
2023-05-21T00:17:02.844Z,17.50
2023-05-21T00:19:32.645Z,17.70
2023-05-21T00:22:03.680Z,17.40
2023-05-21T00:24:31.492Z,17.50
2023-05-21T00:26:59.297Z,16.80
2023-05-21T00:29:27.649Z,17.50
2023-05-21T00:31:56.063Z,17.40
2023-05-21T00:34:23.961Z,17.30
2023-05-21T00:36:53.332Z,17.00
2023-05-21T00:39:22.510Z,17.10
2023-05-21T00:41:51.131Z,17.20
2023-05-21T00:44:19.667Z,17.10
2023-05-21T00:46:48.844Z,17.10
2023-05-21T00:49:17.045Z,17.20
2023-05-21T00:51:45.941Z,17.30
2023-05-21T00:54:13.999Z,17.40
2023-05-21T00:56:43.548Z,17.50
2023-05-21T00:59:11.578Z,17.00
2023-05-21T01:01:39.412Z,17.30
2023-05-21T01:04:07.188Z,16.90
2023-05-21T01:06:35.352Z,17.50
2023-05-21T01:09:06.303Z,17.20
2023-05-21T01:11:39.729Z,17.10
2023-05-21T01:14:11.136Z,17.30
2023-05-21T01:16:40.987Z,17.10
2023-05-21T01:19:11.566Z,17.00
2023-05-21T01:21:45.799Z,17.40
2023-05-21T01:24:15.320Z,17.20
2023-05-21T01:26:44.225Z,17.10
2023-05-21T01:29:13.083Z,17.20
2023-05-21T01:31:52.753Z,17.20
2023-05-21T01:34:24.816Z,17.20
2023-05-21T01:36:58.393Z,17.40
2023-05-21T01:39:32.124Z,17.00
2023-05-21T01:42:01.423Z,17.10
2023-05-21T01:44:29.720Z,17.10
2023-05-21T01:46:59.425Z,17.10
2023-05-21T01:49:27.513Z,16.80
2023-05-21T01:51:55.443Z,17.20
2023-05-21T01:54:23.962Z,17.20
2023-05-21T01:56:53.053Z,16.90
2023-05-21T01:59:20.870Z,17.20
2023-05-21T02:01:48.644Z,16.50
2023-05-21T02:04:16.567Z,17.00
2023-05-21T02:06:44.366Z,16.40
2023-05-21T02:09:12.100Z,17.20
2023-05-21T02:11:39.971Z,16.80
2023-05-21T02:14:10.446Z,16.80
2023-05-21T02:16:38.381Z,16.90
2023-05-21T02:19:06.683Z,16.90
2023-05-21T02:21:34.579Z,16.40
2023-05-21T02:24:02.307Z,16.60
2023-05-21T02:26:30.081Z,16.30
2023-05-21T02:28:57.982Z,16.70
2023-05-21T02:31:27.161Z,16.60
2023-05-21T02:33:54.977Z,16.80
2023-05-21T02:36:25.134Z,16.60
2023-05-21T02:38:53.129Z,16.40
2023-05-21T02:41:21.069Z,16.70
2023-05-21T02:43:48.841Z,16.40
2023-05-21T02:46:16.645Z,16.80
2023-05-21T02:48:45.864Z,16.70
2023-05-21T02:51:13.617Z,16.60
2023-05-21T02:53:41.501Z,16.70
2023-05-21T02:56:09.385Z,16.40
2023-05-21T02:58:37.149Z,16.60
2023-05-21T03:01:04.990Z,16.30
2023-05-21T03:03:32.957Z,16.60
2023-05-21T03:06:02.174Z,16.70
2023-05-21T03:08:30.032Z,16.60
2023-05-21T03:10:57.824Z,16.50
2023-05-21T03:13:25.893Z,16.40
2023-05-21T03:15:56.292Z,16.90
2023-05-21T03:18:24.132Z,16.60
2023-05-21T03:20:51.948Z,16.50
2023-05-21T03:23:21.046Z,16.70
2023-05-21T03:25:48.977Z,16.30
2023-05-21T03:28:17.578Z,16.70
2023-05-21T03:30:46.678Z,16.50
2023-05-21T03:33:15.548Z,16.50
2023-05-21T03:35:43.433Z,16.40
2023-05-21T03:38:11.251Z,16.70
2023-05-21T03:40:40.449Z,16.40
2023-05-21T03:43:08.281Z,16.70
2023-05-21T03:45:36.781Z,16.60
2023-05-21T03:48:05.678Z,16.50
2023-05-21T03:50:33.495Z,16.60
2023-05-21T03:53:01.943Z,16.60
2023-05-21T03:55:30.313Z,16.70
2023-05-21T03:57:59.452Z,16.50
2023-05-21T04:00:27.210Z,16.70
2023-05-21T04:02:55.228Z,16.40
2023-05-21T04:05:23.022Z,16.50
2023-05-21T04:07:50.780Z,16.30
2023-05-21T04:10:18.852Z,16.40
2023-05-21T04:12:49.066Z,16.50
2023-05-21T04:15:18.532Z,16.70
2023-05-21T04:17:46.861Z,16.50
2023-05-21T04:20:16.885Z,16.50
2023-05-21T04:22:44.746Z,16.60
2023-05-21T04:25:12.636Z,16.60
2023-05-21T04:27:40.564Z,16.70
2023-05-21T04:30:09.620Z,16.50
2023-05-21T04:32:39.262Z,16.50
2023-05-21T04:35:07.791Z,16.70
2023-05-21T04:37:36.270Z,16.30
2023-05-21T04:40:04.861Z,16.70
2023-05-21T04:42:33.075Z,16.10
2023-05-21T04:45:00.848Z,16.50
2023-05-21T04:47:30.285Z,16.70
2023-05-21T04:49:59.652Z,16.40
2023-05-21T04:52:27.740Z,16.80
2023-05-21T04:54:55.512Z,16.50
2023-05-21T04:57:24.466Z,16.70
2023-05-21T04:59:52.644Z,16.40
2023-05-21T05:02:20.531Z,16.80
2023-05-21T05:04:48.267Z,16.70
2023-05-21T05:07:17.343Z,17.00
2023-05-21T05:09:45.108Z,16.80
2023-05-21T05:12:12.840Z,17.20
2023-05-21T05:14:40.687Z,17.20
2023-05-21T05:17:09.916Z,17.00
2023-05-21T05:19:37.690Z,17.10
2023-05-21T05:22:05.901Z,17.10
2023-05-21T05:24:35.058Z,17.30
2023-05-21T05:27:02.901Z,17.10
2023-05-21T05:29:30.765Z,17.50
2023-05-21T05:31:58.585Z,17.20
2023-05-21T05:34:26.460Z,17.40
2023-05-21T05:36:54.224Z,17.40
2023-05-21T05:39:22.020Z,17.70
2023-05-21T05:41:51.152Z,17.60
2023-05-21T05:44:18.949Z,17.50
2023-05-21T05:46:46.886Z,17.80
2023-05-21T05:49:14.895Z,17.90
2023-05-21T05:51:42.954Z,17.80
2023-05-21T05:54:10.722Z,18.10
2023-05-21T05:56:38.478Z,18.00
2023-05-21T05:59:07.591Z,17.90
2023-05-21T06:01:35.442Z,18.10
2023-05-21T06:04:03.193Z,17.90
2023-05-21T06:06:31.564Z,18.10
2023-05-21T06:08:59.291Z,18.40
2023-05-21T06:11:27.104Z,18.50
2023-05-21T06:13:54.894Z,18.70
2023-05-21T06:16:24.114Z,19.00
2023-05-21T06:18:51.921Z,19.10
2023-05-21T06:21:19.937Z,19.20
2023-05-21T06:23:47.842Z,20.00
2023-05-21T06:26:15.726Z,20.60
2023-05-21T06:28:43.491Z,21.20
2023-05-21T06:31:11.637Z,22.10
2023-05-21T06:33:41.104Z,22.80
2023-05-21T06:36:09.191Z,24.00
2023-05-21T06:38:36.981Z,25.10
2023-05-21T06:41:04.907Z,26.00
2023-05-21T06:43:32.765Z,26.20
2023-05-21T06:46:01.442Z,26.40
2023-05-21T06:48:29.329Z,27.20
2023-05-21T06:50:58.473Z,27.50
2023-05-21T06:53:26.282Z,28.10
2023-05-21T06:55:54.531Z,28.10
2023-05-21T06:58:22.463Z,28.10
2023-05-21T07:00:50.450Z,27.80
2023-05-21T07:03:18.480Z,27.10
2023-05-21T07:05:46.345Z,26.80
2023-05-21T07:08:15.494Z,26.90
2023-05-21T07:10:43.425Z,26.80
2023-05-21T07:13:11.508Z,26.90
2023-05-21T07:15:39.648Z,27.00
2023-05-21T07:18:08.018Z,26.70
2023-05-21T07:20:35.853Z,27.00
2023-05-21T07:23:03.772Z,27.40
2023-05-21T07:25:33.056Z,27.60
2023-05-21T07:28:00.850Z,27.50
2023-05-21T07:30:28.656Z,27.50
2023-05-21T07:32:56.564Z,27.40
2023-05-21T07:35:24.470Z,27.20
2023-05-21T07:37:52.412Z,27.30
2023-05-21T07:40:20.376Z,27.50
2023-05-21T07:42:49.557Z,27.60
2023-05-21T07:45:17.516Z,27.50
2023-05-21T07:47:47.245Z,27.60
2023-05-21T07:50:15.392Z,27.80
2023-05-21T07:52:43.309Z,28.00
2023-05-21T07:55:11.890Z,28.10
2023-05-21T07:57:39.653Z,28.10
2023-05-21T08:00:10.894Z,28.30
2023-05-21T08:02:40.624Z,28.40
2023-05-21T08:05:11.614Z,28.70
2023-05-21T08:07:42.867Z,28.70
2023-05-21T08:10:12.436Z,28.90
2023-05-21T08:12:42.163Z,29.20
2023-05-21T08:15:14.374Z,29.50
2023-05-21T08:17:43.672Z,30.10
2023-05-21T08:20:15.355Z,30.30
2023-05-21T08:22:45.182Z,30.20
2023-05-21T08:25:15.008Z,30.40
2023-05-21T08:27:45.197Z,30.10
2023-05-21T08:30:16.032Z,29.90
2023-05-21T08:32:46.033Z,30.00
2023-05-21T08:35:15.651Z,30.00
2023-05-21T08:37:44.676Z,29.50
2023-05-21T08:40:14.686Z,29.30
2023-05-21T08:42:49.941Z,29.70
2023-05-21T08:45:23.787Z,29.70
2023-05-21T08:47:58.287Z,29.80
2023-05-21T08:50:29.772Z,29.70
2023-05-21T08:52:59.731Z,29.90
2023-05-21T08:55:30.162Z,30.20
2023-05-21T08:58:00.070Z,30.00
2023-05-21T09:00:31.305Z,29.90
2023-05-21T09:03:04.348Z,30.10
2023-05-21T09:05:32.434Z,31.10
2023-05-21T09:08:05.313Z,31.90
2023-05-21T09:10:36.943Z,32.60
2023-05-21T09:13:04.960Z,32.90
2023-05-21T09:15:34.435Z,33.10
2023-05-21T09:18:02.539Z,33.10
2023-05-21T09:20:30.713Z,33.20
2023-05-21T09:23:03.375Z,33.20
2023-05-21T09:25:32.025Z,33.20
2023-05-21T09:28:00.238Z,33.40
2023-05-21T09:30:31.320Z,33.20
2023-05-21T09:33:03.286Z,33.30
2023-05-21T09:35:31.344Z,33.30
2023-05-21T09:37:59.170Z,32.80
2023-05-21T09:40:26.941Z,32.20
2023-05-21T09:42:56.046Z,32.20
2023-05-21T09:45:26.378Z,31.80
2023-05-21T09:47:55.199Z,31.80
2023-05-21T09:50:27.781Z,31.70
2023-05-21T09:52:56.438Z,31.70
2023-05-21T09:55:25.636Z,31.40
2023-05-21T09:57:54.389Z,31.10
2023-05-21T10:00:23.365Z,30.70
2023-05-21T10:02:55.358Z,30.50
2023-05-21T10:05:28.054Z,30.20
2023-05-21T10:08:01.846Z,30.10
2023-05-21T10:10:30.526Z,30.10
2023-05-21T10:13:02.187Z,30.50
2023-05-21T10:15:36.123Z,30.60
2023-05-21T10:18:04.940Z,30.40
2023-05-21T10:20:34.633Z,30.40
2023-05-21T10:23:03.360Z,30.10
2023-05-21T10:25:32.780Z,30.30
2023-05-21T10:28:00.669Z,30.40
2023-05-21T10:30:28.709Z,30.50
2023-05-21T10:32:57.647Z,30.80
2023-05-21T10:35:26.503Z,31.20
2023-05-21T10:37:56.988Z,31.40
2023-05-21T10:40:24.737Z,31.40
2023-05-21T10:43:34.228Z,31.40
2023-05-21T10:46:26.246Z,31.10
2023-05-21T10:49:06.988Z,31.40
2023-05-21T10:51:44.867Z,31.40
2023-05-21T10:54:49.786Z,31.40
2023-05-21T10:57:32.359Z,31.40
2023-05-21T11:00:00.795Z,31.30
2023-05-21T11:02:29.947Z,31.20
2023-05-21T11:05:01.090Z,31.00
2023-05-21T11:07:53.842Z,31.30
2023-05-21T11:10:40.477Z,31.50
2023-05-21T11:13:09.408Z,31.40
2023-05-21T11:16:08.305Z,31.50
2023-05-21T11:18:58.032Z,31.80
2023-05-21T11:21:30.454Z,31.80
2023-05-21T11:24:02.618Z,32.10
2023-05-21T11:27:05.715Z,32.20
2023-05-21T11:29:41.466Z,32.30
2023-05-21T11:32:10.985Z,31.80
2023-05-21T11:34:41.076Z,31.70
2023-05-21T11:37:27.501Z,31.90
2023-05-21T11:39:56.395Z,32.40
2023-05-21T11:42:36.143Z,32.30
2023-05-21T11:45:04.996Z,32.90
2023-05-21T11:47:33.367Z,33.00
2023-05-21T11:50:02.272Z,33.20
2023-05-21T11:52:30.916Z,33.00
2023-05-21T11:54:59.778Z,33.10
2023-05-21T11:57:30.757Z,33.40
2023-05-21T12:00:01.444Z,33.40
2023-05-21T12:02:33.318Z,33.90
2023-05-21T12:05:01.426Z,34.00
2023-05-21T12:07:31.240Z,34.10
2023-05-21T12:09:59.577Z,33.90
2023-05-21T12:12:35.526Z,33.70
2023-05-21T12:15:13.353Z,33.50
2023-05-21T12:17:41.902Z,32.90
2023-05-21T12:20:10.827Z,32.70
2023-05-21T12:22:43.597Z,32.60
2023-05-21T12:25:12.287Z,32.60
2023-05-21T12:27:41.936Z,32.10
2023-05-21T12:30:11.924Z,32.60
2023-05-21T12:32:44.266Z,32.80
2023-05-21T12:35:22.699Z,32.60
2023-05-21T12:37:51.745Z,32.70
2023-05-21T12:40:20.650Z,32.80
2023-05-21T12:42:48.697Z,32.40
2023-05-21T12:45:19.151Z,32.10
2023-05-21T12:47:50.453Z,31.50
2023-05-21T12:50:22.038Z,31.10
2023-05-21T12:52:49.900Z,31.20
2023-05-21T12:55:18.446Z,31.10
2023-05-21T12:57:46.478Z,31.10
2023-05-21T13:00:14.566Z,31.20
2023-05-21T13:02:45.707Z,31.40
2023-05-21T13:05:18.034Z,31.40
2023-05-21T13:07:47.456Z,31.30
2023-05-21T13:10:17.160Z,30.80
2023-05-21T13:12:45.770Z,30.70
2023-05-21T13:15:14.016Z,30.50
2023-05-21T13:17:43.283Z,30.40
2023-05-21T13:20:13.035Z,30.30
2023-05-21T13:22:43.239Z,30.40
2023-05-21T13:25:12.027Z,30.60
2023-05-21T13:27:40.395Z,30.60
2023-05-21T13:30:11.303Z,30.60
2023-05-21T13:32:39.853Z,30.50
2023-05-21T13:35:11.157Z,30.50
2023-05-21T13:37:40.115Z,30.50
2023-05-21T13:40:10.938Z,30.20
2023-05-21T13:42:39.331Z,30.20
2023-05-21T13:45:08.620Z,30.30
2023-05-21T13:47:39.749Z,30.20
2023-05-21T13:50:10.790Z,30.40
2023-05-21T13:52:39.230Z,30.60
2023-05-21T13:55:07.838Z,30.60
2023-05-21T13:57:35.732Z,30.50
2023-05-21T14:00:04.020Z,30.50
2023-05-21T14:02:31.818Z,30.50
2023-05-21T14:04:59.622Z,30.70
2023-05-21T14:07:28.795Z,31.00
2023-05-21T14:09:56.698Z,31.00
2023-05-21T14:12:24.542Z,31.10
2023-05-21T14:14:52.512Z,31.10
2023-05-21T14:17:20.454Z,31.20
2023-05-21T14:19:48.864Z,30.90
2023-05-21T14:22:16.781Z,30.60
2023-05-21T14:24:46.801Z,30.20
2023-05-21T14:27:15.469Z,29.90
2023-05-21T14:29:43.400Z,29.70
2023-05-21T14:32:11.305Z,29.50
2023-05-21T14:34:40.290Z,29.50
2023-05-21T14:37:08.211Z,29.40
2023-05-21T14:39:36.008Z,29.40
2023-05-21T14:42:06.206Z,29.50
2023-05-21T14:44:33.959Z,29.60
2023-05-21T14:47:01.710Z,29.60
2023-05-21T14:49:29.560Z,29.60
2023-05-21T14:51:57.889Z,29.50
2023-05-21T14:54:25.660Z,29.50
2023-05-21T14:56:54.179Z,29.50
2023-05-21T14:59:23.274Z,29.50
2023-05-21T15:01:51.384Z,29.70
2023-05-21T15:04:19.224Z,29.80
2023-05-21T15:06:49.009Z,29.60
2023-05-21T15:09:16.774Z,29.60
2023-05-21T15:11:45.950Z,29.70
2023-05-21T15:14:13.861Z,29.70
2023-05-21T15:16:43.091Z,29.80
2023-05-21T15:19:11.840Z,30.10
2023-05-21T15:21:39.730Z,30.10
2023-05-21T15:24:07.700Z,30.10
2023-05-21T15:26:35.441Z,30.10
2023-05-21T15:29:03.843Z,30.00
2023-05-21T15:31:32.311Z,29.90
2023-05-21T15:34:01.518Z,29.80
2023-05-21T15:36:29.440Z,29.90
2023-05-21T15:38:57.322Z,29.80
2023-05-21T15:41:25.092Z,29.80
2023-05-21T15:43:52.879Z,29.60
2023-05-21T15:46:21.019Z,29.60
2023-05-21T15:48:48.792Z,29.80
2023-05-21T15:51:18.379Z,29.60
2023-05-21T15:53:46.221Z,29.60
2023-05-21T15:56:14.024Z,29.40
2023-05-21T15:58:41.843Z,29.20
2023-05-21T16:01:09.723Z,29.10
2023-05-21T16:03:37.701Z,29.10
2023-05-21T16:06:07.210Z,29.10
2023-05-21T16:08:36.333Z,29.10
2023-05-21T16:11:04.208Z,29.10
2023-05-21T16:13:31.961Z,28.90
2023-05-21T16:15:59.739Z,28.90
2023-05-21T16:18:27.469Z,28.80
2023-05-21T16:20:56.628Z,28.70
2023-05-21T16:23:24.436Z,28.70
2023-05-21T16:25:53.623Z,28.50
2023-05-21T16:28:24.159Z,28.30
2023-05-21T16:30:52.386Z,28.40
2023-05-21T16:33:20.236Z,28.50
2023-05-21T16:35:48.049Z,28.60
2023-05-21T16:38:16.165Z,28.60
2023-05-21T16:40:45.037Z,28.60
2023-05-21T16:43:14.555Z,28.60
2023-05-21T16:45:43.899Z,28.50
2023-05-21T16:48:12.949Z,28.50
2023-05-21T16:50:41.317Z,28.60
2023-05-21T16:53:09.884Z,28.50
2023-05-21T16:55:39.050Z,28.50
2023-05-21T16:58:09.339Z,28.50
2023-05-21T17:00:38.648Z,28.40
2023-05-21T17:03:06.708Z,28.20
2023-05-21T17:05:34.953Z,28.10
2023-05-21T17:08:03.022Z,28.00
2023-05-21T17:10:33.706Z,27.90
2023-05-21T17:13:17.690Z,27.80
2023-05-21T17:15:55.725Z,27.80
2023-05-21T17:18:24.873Z,27.70
2023-05-21T17:20:56.468Z,27.80
2023-05-21T17:23:25.986Z,27.80
2023-05-21T17:25:55.112Z,27.70
2023-05-21T17:28:25.912Z,27.70
2023-05-21T17:30:57.667Z,27.70
2023-05-21T17:33:26.883Z,27.70
2023-05-21T17:35:57.366Z,27.60
2023-05-21T17:38:27.153Z,27.50
2023-05-21T17:40:56.834Z,27.50
2023-05-21T17:43:27.933Z,27.40
2023-05-21T17:45:58.967Z,27.30
2023-05-21T17:48:28.277Z,27.30
2023-05-21T17:50:57.831Z,27.30
2023-05-21T17:53:27.081Z,27.20
2023-05-21T17:55:56.489Z,27.00
2023-05-21T17:58:25.640Z,26.90
2023-05-21T18:00:55.125Z,26.90
2023-05-21T18:03:26.455Z,26.80
2023-05-21T18:05:55.752Z,26.80
2023-05-21T18:08:25.115Z,26.70
2023-05-21T18:10:54.224Z,26.60
2023-05-21T18:13:23.636Z,26.50
2023-05-21T18:15:53.348Z,26.50
2023-05-21T18:18:22.641Z,26.50
2023-05-21T18:20:55.539Z,26.40
2023-05-21T18:23:23.417Z,26.30
2023-05-21T18:25:51.448Z,26.40
2023-05-21T18:30:09.232Z,26.30
2023-05-21T18:32:38.529Z,26.20
2023-05-21T18:35:07.789Z,26.20
2023-05-21T18:37:37.246Z,26.10
2023-05-21T18:40:07.279Z,26.00
2023-05-21T18:42:35.774Z,26.00
2023-05-21T18:46:43.971Z,25.90
2023-05-21T18:49:11.865Z,25.70
2023-05-21T18:51:39.726Z,25.50
2023-05-21T18:54:08.401Z,25.50
2023-05-21T18:56:36.242Z,25.40
2023-05-21T19:00:11.428Z,25.30
2023-05-21T19:02:39.420Z,25.20
2023-05-21T19:05:08.631Z,25.20
2023-05-21T19:07:37.273Z,25.20
2023-05-21T19:10:05.752Z,25.20
2023-05-21T19:12:35.707Z,25.00
2023-05-21T19:15:03.714Z,24.90
2023-05-21T19:17:33.387Z,24.80
2023-05-21T19:20:01.459Z,24.70
2023-05-21T19:22:29.740Z,24.50
2023-05-21T19:24:57.601Z,24.40
2023-05-21T19:27:25.700Z,24.30
2023-05-21T19:29:55.798Z,24.20
2023-05-21T19:32:24.682Z,24.10
2023-05-21T19:34:54.155Z,24.00
2023-05-21T19:37:22.264Z,23.90
2023-05-21T19:39:50.411Z,23.80
2023-05-21T19:42:21.255Z,23.70
2023-05-21T19:44:49.148Z,23.60
2023-05-21T19:47:17.163Z,23.50
2023-05-21T19:49:45.696Z,23.40
2023-05-21T19:52:14.927Z,23.40
2023-05-21T19:54:42.928Z,23.30
2023-05-21T19:57:13.118Z,23.30
2023-05-21T19:59:41.172Z,23.20
2023-05-21T20:02:15.008Z,23.10
2023-05-21T20:04:42.949Z,23.00
2023-05-21T20:07:10.991Z,22.90
2023-05-21T20:09:41.164Z,22.90
2023-05-21T20:12:09.780Z,22.90
2023-05-21T20:14:37.573Z,22.80
2023-05-21T20:17:06.877Z,22.80
2023-05-21T20:19:35.761Z,22.70
2023-05-21T20:22:04.492Z,22.70
2023-05-21T20:24:33.329Z,22.70
2023-05-21T20:27:02.660Z,22.70
2023-05-21T20:29:30.866Z,22.70
2023-05-21T20:31:58.818Z,22.60
2023-05-21T20:34:27.303Z,22.50
2023-05-21T20:36:57.873Z,22.50
2023-05-21T20:39:27.309Z,22.50
2023-05-21T20:41:56.129Z,22.50
2023-05-21T20:44:28.850Z,22.40
2023-05-21T20:46:57.024Z,22.20
2023-05-21T20:49:25.835Z,22.40
2023-05-21T20:51:54.067Z,22.40
2023-05-21T20:54:23.116Z,22.20
2023-05-21T20:56:54.714Z,21.90
2023-05-21T20:59:22.679Z,22.00
2023-05-21T21:01:52.481Z,21.90
2023-05-21T21:04:20.775Z,21.90
2023-05-21T21:06:50.381Z,21.50
2023-05-21T21:09:18.254Z,21.80
2023-05-21T21:11:46.267Z,21.80
2023-05-21T21:14:14.849Z,21.70
2023-05-21T21:16:42.815Z,21.70
2023-05-21T21:19:12.611Z,21.40
2023-05-21T21:21:40.672Z,21.70
2023-05-21T21:24:08.980Z,21.70
2023-05-21T21:26:36.787Z,21.70
2023-05-21T21:29:04.734Z,21.80
2023-05-21T21:31:33.057Z,21.50
2023-05-21T21:34:01.403Z,21.80
2023-05-21T21:36:31.228Z,21.80
2023-05-21T21:38:59.127Z,21.80
2023-05-21T21:41:27.339Z,21.80
2023-05-21T21:43:56.557Z,21.70
2023-05-21T21:46:26.390Z,21.70
2023-05-21T21:48:54.276Z,21.80
2023-05-21T21:51:23.576Z,21.70
2023-05-21T21:53:52.781Z,21.70
2023-05-21T21:56:20.747Z,21.40
2023-05-21T21:58:48.561Z,21.70
2023-05-21T22:01:16.462Z,21.60
2023-05-21T22:03:44.354Z,21.50
2023-05-21T22:06:12.208Z,21.50
2023-05-21T22:08:40.001Z,21.50
2023-05-21T22:11:09.307Z,21.20
2023-05-21T22:13:37.621Z,21.50
2023-05-21T22:16:07.174Z,21.50
2023-05-21T22:18:41.536Z,21.30
2023-05-21T22:21:10.592Z,20.90
2023-05-21T22:23:39.006Z,20.70
2023-05-21T22:26:07.064Z,20.70
2023-05-21T22:28:36.377Z,20.80
2023-05-21T22:31:04.425Z,20.80
2023-05-21T22:33:32.543Z,20.80
2023-05-21T22:36:00.700Z,20.70
2023-05-21T22:38:28.741Z,20.80
2023-05-21T22:40:57.102Z,20.80
2023-05-21T22:43:27.069Z,20.30
2023-05-21T22:45:56.150Z,20.70
2023-05-21T22:48:23.967Z,20.70
2023-05-21T22:50:53.316Z,20.60
2023-05-21T22:53:21.487Z,20.80
2023-05-21T22:55:49.299Z,20.40
2023-05-21T22:58:17.201Z,20.80
2023-05-21T23:00:45.020Z,20.80
2023-05-21T23:03:14.248Z,20.80
2023-05-21T23:05:42.091Z,20.80
2023-05-21T23:08:09.926Z,20.90
2023-05-21T23:10:37.979Z,20.50
2023-05-21T23:13:05.896Z,20.20
2023-05-21T23:15:33.656Z,20.00
2023-05-21T23:18:03.756Z,20.10
2023-05-21T23:20:33.637Z,20.00
2023-05-21T23:23:01.383Z,20.20
2023-05-21T23:25:29.131Z,19.60
2023-05-21T23:27:56.972Z,20.10
2023-05-21T23:30:24.709Z,20.00
2023-05-21T23:32:52.577Z,19.60
2023-05-21T23:35:20.905Z,20.10
2023-05-21T23:37:50.045Z,19.90
2023-05-21T23:40:17.973Z,19.80
2023-05-21T23:42:45.955Z,19.60
2023-05-21T23:45:13.699Z,19.70
2023-05-21T23:47:41.671Z,19.90
2023-05-21T23:50:10.445Z,19.70
2023-05-21T23:52:38.282Z,19.60
2023-05-21T23:55:08.635Z,19.30
2023-05-21T23:57:36.483Z,19.20
